Ana Sayfa
METAR-TAF:

METAR-TAF

Havaalanları :

Antananarivo, Madagaskar

Enlem: 18-48S, Boylam: 047-29E, yükseklik: 1279 m

Güncel hava durumu gözlemi

Rapor saat 05:00 UTC de 12 dakika önce yapıldı.
Rüzgar güneydoğudan 10 kt, doğu/güneydoğu ve güney arasında değişken
Sıcaklık 17°C
Nem 82%
Basınç 1026 hPa
Görüş mesafesi 10 km veya daha fazla
1500 ft yükseklikte az bulutlu
2000 ft yükseklikte parçalı çok bulutlu

METAR: FMMI 180500Z 13010KT 110V170 9999 FEW015 BKN020 17/14 Q1026 NOSIG

Saat: 08:12 (05:12 UTC)

Tahmin

Rapor saat 23:00 UTC de 6 saat ve 12 dakika önce yapıldı.
Ayın 18'si saat 00 UTC'den ayın 19'si saat 06 UTC'ye kadar geçerli Tahmin
Rüzgar güneydoğudan 10 kt
Görüş mesafesi 10 km veya daha fazla
1700 ft yükseklikte az bulutlu
2000 ft yükseklikte parçalı çok bulutlu

TAF: FMMI 172300Z 1800/1906 14010KT 9999 FEW017 BKN020

4.000'den fazla havaalanı için hava durumu gözlemleri ve tahminleri (METAR ve TAF raporları).

Kullanılabilir istasyonlar harita üzerinde sarı ve kırmızı noktalarla gösterilir.

İstasyonun adını görmek için fareyi noktanın üzerinde gezdirin.

Sonrasında hava gözlem ve tahminlerini görmek için tıklayın.

Haritayı değiştirmek için: yaklaştırmak için siyah artı işaretli yeşil düğmeye ve uzaklaştırmak için de eksi işaretli düğmeye hızla tıklayın; bitişik haritalar için yeşil okları kullanın.


METAR-TAF: